sensor_id;sensor_type;location;lat;lon;timestamp;temperature;humidity
20526;DHT22;10421;49.142;9.232;2022-11-09T00:01:38;16.50;85.40
20526;DHT22;10421;49.142;9.232;2022-11-09T00:04:07;16.60;85.40
20526;DHT22;10421;49.142;9.232;2022-11-09T00:06:34;16.70;85.20
20526;DHT22;10421;49.142;9.232;2022-11-09T00:09:03;16.70;84.90
20526;DHT22;10421;49.142;9.232;2022-11-09T00:11:30;16.70;84.90
20526;DHT22;10421;49.142;9.232;2022-11-09T00:13:57;16.80;84.80
20526;DHT22;10421;49.142;9.232;2022-11-09T00:16:23;16.90;84.80
20526;DHT22;10421;49.142;9.232;2022-11-09T00:18:50;17.00;84.70
20526;DHT22;10421;49.142;9.232;2022-11-09T00:21:21;17.00;84.60
20526;DHT22;10421;49.142;9.232;2022-11-09T00:23:48;17.10;84.60
20526;DHT22;10421;49.142;9.232;2022-11-09T00:26:17;17.20;84.50
20526;DHT22;10421;49.142;9.232;2022-11-09T00:28:44;17.10;83.80
20526;DHT22;10421;49.142;9.232;2022-11-09T00:31:12;17.20;84.10
20526;DHT22;10421;49.142;9.232;2022-11-09T00:33:39;17.20;84.20
20526;DHT22;10421;49.142;9.232;2022-11-09T00:36:10;17.20;83.90
20526;DHT22;10421;49.142;9.232;2022-11-09T00:38:39;17.20;83.90
20526;DHT22;10421;49.142;9.232;2022-11-09T00:41:08;17.20;83.90
20526;DHT22;10421;49.142;9.232;2022-11-09T00:43:35;17.10;83.90
20526;DHT22;10421;49.142;9.232;2022-11-09T00:46:02;16.90;83.50
20526;DHT22;10421;49.142;9.232;2022-11-09T00:48:29;16.80;84.10
20526;DHT22;10421;49.142;9.232;2022-11-09T00:50:56;16.90;84.30
20526;DHT22;10421;49.142;9.232;2022-11-09T00:53:24;16.90;84.30
20526;DHT22;10421;49.142;9.232;2022-11-09T00:55:57;17.00;84.30
20526;DHT22;10421;49.142;9.232;2022-11-09T00:58:25;17.10;84.40
20526;DHT22;10421;49.142;9.232;2022-11-09T01:00:52;17.10;84.60
20526;DHT22;10421;49.142;9.232;2022-11-09T01:03:19;17.20;84.80
20526;DHT22;10421;49.142;9.232;2022-11-09T01:05:46;17.20;84.90
20526;DHT22;10421;49.142;9.232;2022-11-09T01:08:13;17.20;85.00
20526;DHT22;10421;49.142;9.232;2022-11-09T01:10:41;17.30;85.00
20526;DHT22;10421;49.142;9.232;2022-11-09T01:13:10;17.30;84.80
20526;DHT22;10421;49.142;9.232;2022-11-09T01:15:41;17.30;84.80
20526;DHT22;10421;49.142;9.232;2022-11-09T01:18:08;17.40;85.10
20526;DHT22;10421;49.142;9.232;2022-11-09T01:20:38;17.30;85.40
20526;DHT22;10421;49.142;9.232;2022-11-09T01:23:06;17.30;85.90
20526;DHT22;10421;49.142;9.232;2022-11-09T01:25:32;17.30;86.50
20526;DHT22;10421;49.142;9.232;2022-11-09T01:27:59;17.30;87.00
20526;DHT22;10421;49.142;9.232;2022-11-09T01:30:28;17.20;87.60
20526;DHT22;10421;49.142;9.232;2022-11-09T01:32:55;17.10;88.80
20526;DHT22;10421;49.142;9.232;2022-11-09T01:35:22;17.00;89.50
20526;DHT22;10421;49.142;9.232;2022-11-09T01:37:48;16.90;90.50
20526;DHT22;10421;49.142;9.232;2022-11-09T01:40:15;16.80;90.70
20526;DHT22;10421;49.142;9.232;2022-11-09T01:42:42;16.70;91.00
20526;DHT22;10421;49.142;9.232;2022-11-09T01:45:24;16.60;91.40
20526;DHT22;10421;49.142;9.232;2022-11-09T01:47:58;16.50;91.90
20526;DHT22;10421;49.142;9.232;2022-11-09T01:50:30;16.40;92.20
20526;DHT22;10421;49.142;9.232;2022-11-09T01:52:59;16.30;92.50
20526;DHT22;10421;49.142;9.232;2022-11-09T01:55:28;16.20;92.50
20526;DHT22;10421;49.142;9.232;2022-11-09T01:57:57;16.20;92.60
20526;DHT22;10421;49.142;9.232;2022-11-09T02:00:26;16.20;92.70
20526;DHT22;10421;49.142;9.232;2022-11-09T02:02:57;16.20;92.80
20526;DHT22;10421;49.142;9.232;2022-11-09T02:05:28;16.20;92.80
20526;DHT22;10421;49.142;9.232;2022-11-09T02:07:57;16.20;92.80
20526;DHT22;10421;49.142;9.232;2022-11-09T02:10:30;16.10;92.70
20526;DHT22;10421;49.142;9.232;2022-11-09T02:12:59;16.00;92.90
20526;DHT22;10421;49.142;9.232;2022-11-09T02:15:28;15.90;93.10
20526;DHT22;10421;49.142;9.232;2022-11-09T02:17:56;15.90;93.40
20526;DHT22;10421;49.142;9.232;2022-11-09T02:20:26;15.90;93.50
20526;DHT22;10421;49.142;9.232;2022-11-09T02:22:53;15.90;93.60
20526;DHT22;10421;49.142;9.232;2022-11-09T02:25:21;15.90;93.70
20526;DHT22;10421;49.142;9.232;2022-11-09T02:27:48;15.90;93.80
20526;DHT22;10421;49.142;9.232;2022-11-09T02:30:15;15.90;93.90
20526;DHT22;10421;49.142;9.232;2022-11-09T02:32:45;15.90;94.20
20526;DHT22;10421;49.142;9.232;2022-11-09T02:35:11;15.90;94.00
20526;DHT22;10421;49.142;9.232;2022-11-09T02:37:43;15.90;94.00
20526;DHT22;10421;49.142;9.232;2022-11-09T02:40:14;15.90;94.10
20526;DHT22;10421;49.142;9.232;2022-11-09T02:42:43;15.90;94.00
20526;DHT22;10421;49.142;9.232;2022-11-09T02:45:09;15.90;94.10
20526;DHT22;10421;49.142;9.232;2022-11-09T02:47:36;16.00;94.20
20526;DHT22;10421;49.142;9.232;2022-11-09T02:50:04;16.00;94.20
20526;DHT22;10421;49.142;9.232;2022-11-09T02:52:31;16.00;94.30
20526;DHT22;10421;49.142;9.232;2022-11-09T02:54:59;16.00;94.40
20526;DHT22;10421;49.142;9.232;2022-11-09T02:57:25;16.00;94.50
20526;DHT22;10421;49.142;9.232;2022-11-09T02:59:52;16.00;94.60
20526;DHT22;10421;49.142;9.232;2022-11-09T03:02:19;16.00;94.70
20526;DHT22;10421;49.142;9.232;2022-11-09T03:04:46;16.00;94.80
20526;DHT22;10421;49.142;9.232;2022-11-09T03:07:12;16.10;95.00
20526;DHT22;10421;49.142;9.232;2022-11-09T03:09:39;16.10;95.10
20526;DHT22;10421;49.142;9.232;2022-11-09T03:12:07;16.10;95.20
20526;DHT22;10421;49.142;9.232;2022-11-09T03:14:48;16.10;95.30
20526;DHT22;10421;49.142;9.232;2022-11-09T03:17:14;16.10;95.50
20526;DHT22;10421;49.142;9.232;2022-11-09T03:19:42;16.10;95.90
20526;DHT22;10421;49.142;9.232;2022-11-09T03:22:09;16.10;96.00
20526;DHT22;10421;49.142;9.232;2022-11-09T03:24:36;16.10;96.30
20526;DHT22;10421;49.142;9.232;2022-11-09T03:27:03;16.00;96.40
20526;DHT22;10421;49.142;9.232;2022-11-09T03:29:31;16.00;96.60
20526;DHT22;10421;49.142;9.232;2022-11-09T03:31:58;16.00;96.80
20526;DHT22;10421;49.142;9.232;2022-11-09T03:34:25;15.90;97.00
20526;DHT22;10421;49.142;9.232;2022-11-09T03:36:52;15.90;97.20
20526;DHT22;10421;49.142;9.232;2022-11-09T03:39:19;15.80;97.40
20526;DHT22;10421;49.142;9.232;2022-11-09T03:41:46;15.70;97.50
20526;DHT22;10421;49.142;9.232;2022-11-09T03:44:12;15.70;97.60
20526;DHT22;10421;49.142;9.232;2022-11-09T03:46:40;15.70;97.80
20526;DHT22;10421;49.142;9.232;2022-11-09T03:49:07;15.50;98.10
20526;DHT22;10421;49.142;9.232;2022-11-09T03:51:34;15.50;98.50
20526;DHT22;10421;49.142;9.232;2022-11-09T03:54:01;15.50;98.50
20526;DHT22;10421;49.142;9.232;2022-11-09T03:56:27;15.50;98.50
20526;DHT22;10421;49.142;9.232;2022-11-09T03:58:54;15.50;98.70
20526;DHT22;10421;49.142;9.232;2022-11-09T04:01:21;15.50;98.80
20526;DHT22;10421;49.142;9.232;2022-11-09T04:03:49;15.50;98.90
20526;DHT22;10421;49.142;9.232;2022-11-09T04:06:15;15.50;99.10
20526;DHT22;10421;49.142;9.232;2022-11-09T04:08:42;15.50;99.20
20526;DHT22;10421;49.142;9.232;2022-11-09T04:11:09;15.60;99.40
20526;DHT22;10421;49.142;9.232;2022-11-09T04:13:36;15.50;99.40
20526;DHT22;10421;49.142;9.232;2022-11-09T04:16:03;15.50;99.50
20526;DHT22;10421;49.142;9.232;2022-11-09T04:18:29;15.60;99.60
20526;DHT22;10421;49.142;9.232;2022-11-09T04:20:58;15.60;99.80
20526;DHT22;10421;49.142;9.232;2022-11-09T04:23:25;15.70;99.70
20526;DHT22;10421;49.142;9.232;2022-11-09T04:25:51;15.60;99.90
20526;DHT22;10421;49.142;9.232;2022-11-09T04:28:18;15.50;99.90
20526;DHT22;10421;49.142;9.232;2022-11-09T04:30:45;15.50;99.90
20526;DHT22;10421;49.142;9.232;2022-11-09T04:33:12;15.50;99.90
20526;DHT22;10421;49.142;9.232;2022-11-09T04:35:38;15.60;99.90
20526;DHT22;10421;49.142;9.232;2022-11-09T04:38:13;15.60;99.90
20526;DHT22;10421;49.142;9.232;2022-11-09T04:40:40;15.60;99.90
20526;DHT22;10421;49.142;9.232;2022-11-09T04:43:10;15.70;99.90
20526;DHT22;10421;49.142;9.232;2022-11-09T04:45:37;15.70;99.90
20526;DHT22;10421;49.142;9.232;2022-11-09T04:48:05;15.70;99.90
20526;DHT22;10421;49.142;9.232;2022-11-09T04:50:33;15.80;99.90
20526;DHT22;10421;49.142;9.232;2022-11-09T04:53:04;15.80;99.90
20526;DHT22;10421;49.142;9.232;2022-11-09T04:55:32;15.80;99.90
20526;DHT22;10421;49.142;9.232;2022-11-09T04:57:59;15.80;99.90
20526;DHT22;10421;49.142;9.232;2022-11-09T05:00:26;15.80;99.90
20526;DHT22;10421;49.142;9.232;2022-11-09T05:02:53;15.60;99.90
20526;DHT22;10421;49.142;9.232;2022-11-09T05:05:19;15.40;99.90
20526;DHT22;10421;49.142;9.232;2022-11-09T05:07:46;15.20;99.90
20526;DHT22;10421;49.142;9.232;2022-11-09T05:10:13;15.10;99.90
20526;DHT22;10421;49.142;9.232;2022-11-09T05:12:42;15.10;99.90
20526;DHT22;10421;49.142;9.232;2022-11-09T05:15:10;15.10;99.90
20526;DHT22;10421;49.142;9.232;2022-11-09T05:17:37;15.20;99.90
20526;DHT22;10421;49.142;9.232;2022-11-09T05:20:04;15.10;99.90
20526;DHT22;10421;49.142;9.232;2022-11-09T05:22:31;14.90;99.90
20526;DHT22;10421;49.142;9.232;2022-11-09T05:25:15;14.90;99.90
20526;DHT22;10421;49.142;9.232;2022-11-09T05:27:43;14.80;99.90
20526;DHT22;10421;49.142;9.232;2022-11-09T05:30:11;14.90;99.90
20526;DHT22;10421;49.142;9.232;2022-11-09T05:32:38;14.90;99.90
20526;DHT22;10421;49.142;9.232;2022-11-09T05:35:06;15.00;99.90
20526;DHT22;10421;49.142;9.232;2022-11-09T05:37:33;15.10;99.90
20526;DHT22;10421;49.142;9.232;2022-11-09T05:39:59;15.20;99.90
20526;DHT22;10421;49.142;9.232;2022-11-09T05:42:26;15.30;99.90
20526;DHT22;10421;49.142;9.232;2022-11-09T05:44:54;15.30;99.90
20526;DHT22;10421;49.142;9.232;2022-11-09T05:47:21;15.30;99.90
20526;DHT22;10421;49.142;9.232;2022-11-09T05:49:48;15.30;99.90
20526;DHT22;10421;49.142;9.232;2022-11-09T05:52:15;15.30;99.90
20526;DHT22;10421;49.142;9.232;2022-11-09T05:54:41;15.40;99.90
20526;DHT22;10421;49.142;9.232;2022-11-09T05:57:08;15.40;99.90
20526;DHT22;10421;49.142;9.232;2022-11-09T05:59:35;15.40;99.90
20526;DHT22;10421;49.142;9.232;2022-11-09T06:02:03;15.50;99.90
20526;DHT22;10421;49.142;9.232;2022-11-09T06:04:30;15.60;99.90
20526;DHT22;10421;49.142;9.232;2022-11-09T06:06:57;15.60;99.90
20526;DHT22;10421;49.142;9.232;2022-11-09T06:09:24;15.70;99.90
20526;DHT22;10421;49.142;9.232;2022-11-09T06:11:50;15.70;99.90
20526;DHT22;10421;49.142;9.232;2022-11-09T06:14:17;15.70;99.90
20526;DHT22;10421;49.142;9.232;2022-11-09T06:16:44;15.70;99.90
20526;DHT22;10421;49.142;9.232;2022-11-09T06:19:12;15.70;99.90
20526;DHT22;10421;49.142;9.232;2022-11-09T06:21:39;15.80;99.90
20526;DHT22;10421;49.142;9.232;2022-11-09T06:24:06;15.80;99.90
20526;DHT22;10421;49.142;9.232;2022-11-09T06:26:33;15.80;99.90
20526;DHT22;10421;49.142;9.232;2022-11-09T06:28:59;15.80;99.90
20526;DHT22;10421;49.142;9.232;2022-11-09T06:31:26;15.80;99.90
20526;DHT22;10421;49.142;9.232;2022-11-09T06:33:53;15.80;99.90
20526;DHT22;10421;49.142;9.232;2022-11-09T06:36:21;15.80;99.90
20526;DHT22;10421;49.142;9.232;2022-11-09T06:38:49;15.70;99.90
20526;DHT22;10421;49.142;9.232;2022-11-09T06:41:16;15.40;99.90
20526;DHT22;10421;49.142;9.232;2022-11-09T06:43:42;15.10;99.90
20526;DHT22;10421;49.142;9.232;2022-11-09T06:46:11;14.70;99.90
20526;DHT22;10421;49.142;9.232;2022-11-09T06:48:42;14.50;99.90
20526;DHT22;10421;49.142;9.232;2022-11-09T06:51:09;14.20;99.90
20526;DHT22;10421;49.142;9.232;2022-11-09T06:53:37;14.20;99.90
20526;DHT22;10421;49.142;9.232;2022-11-09T06:56:06;14.10;99.90
20526;DHT22;10421;49.142;9.232;2022-11-09T06:58:34;14.20;99.90
20526;DHT22;10421;49.142;9.232;2022-11-09T07:01:05;14.20;99.90
20526;DHT22;10421;49.142;9.232;2022-11-09T07:03:32;14.10;99.90
20526;DHT22;10421;49.142;9.232;2022-11-09T07:06:03;14.10;99.90
20526;DHT22;10421;49.142;9.232;2022-11-09T07:08:30;14.20;99.90
20526;DHT22;10421;49.142;9.232;2022-11-09T07:11:03;14.40;99.90
20526;DHT22;10421;49.142;9.232;2022-11-09T07:13:30;14.40;99.90
20526;DHT22;10421;49.142;9.232;2022-11-09T07:15:57;14.40;99.90
20526;DHT22;10421;49.142;9.232;2022-11-09T07:18:23;14.30;99.90
20526;DHT22;10421;49.142;9.232;2022-11-09T07:20:50;14.30;99.90
20526;DHT22;10421;49.142;9.232;2022-11-09T07:23:17;14.30;99.90
20526;DHT22;10421;49.142;9.232;2022-11-09T07:25:44;14.40;99.90
20526;DHT22;10421;49.142;9.232;2022-11-09T07:28:12;14.50;99.90
20526;DHT22;10421;49.142;9.232;2022-11-09T07:30:39;14.70;99.90
20526;DHT22;10421;49.142;9.232;2022-11-09T07:33:11;14.80;99.90
20526;DHT22;10421;49.142;9.232;2022-11-09T07:35:39;14.90;99.90
20526;DHT22;10421;49.142;9.232;2022-11-09T07:38:06;15.00;99.90
20526;DHT22;10421;49.142;9.232;2022-11-09T07:40:33;15.10;99.90
20526;DHT22;10421;49.142;9.232;2022-11-09T07:43:01;15.10;99.90
20526;DHT22;10421;49.142;9.232;2022-11-09T07:45:30;15.10;99.90
20526;DHT22;10421;49.142;9.232;2022-11-09T07:47:58;15.20;99.90
20526;DHT22;10421;49.142;9.232;2022-11-09T07:50:26;15.30;99.90
20526;DHT22;10421;49.142;9.232;2022-11-09T07:52:54;15.30;99.90
20526;DHT22;10421;49.142;9.232;2022-11-09T07:55:21;15.30;99.90
20526;DHT22;10421;49.142;9.232;2022-11-09T07:57:47;15.30;99.90
20526;DHT22;10421;49.142;9.232;2022-11-09T08:00:16;15.30;99.90
20526;DHT22;10421;49.142;9.232;2022-11-09T08:02:48;15.20;99.90
20526;DHT22;10421;49.142;9.232;2022-11-09T08:05:14;15.30;99.90
20526;DHT22;10421;49.142;9.232;2022-11-09T08:07:41;15.10;99.90
20526;DHT22;10421;49.142;9.232;2022-11-09T08:10:08;15.10;99.90
20526;DHT22;10421;49.142;9.232;2022-11-09T08:12:35;15.10;99.90
20526;DHT22;10421;49.142;9.232;2022-11-09T08:15:02;15.10;99.90
20526;DHT22;10421;49.142;9.232;2022-11-09T08:17:30;15.00;99.90
20526;DHT22;10421;49.142;9.232;2022-11-09T08:19:58;14.90;99.90
20526;DHT22;10421;49.142;9.232;2022-11-09T08:22:25;14.90;99.90
20526;DHT22;10421;49.142;9.232;2022-11-09T08:24:52;14.80;99.90
20526;DHT22;10421;49.142;9.232;2022-11-09T08:27:18;14.70;99.90
20526;DHT22;10421;49.142;9.232;2022-11-09T08:29:47;14.60;99.90
20526;DHT22;10421;49.142;9.232;2022-11-09T08:32:13;14.60;99.90
20526;DHT22;10421;49.142;9.232;2022-11-09T08:34:40;14.70;99.90
20526;DHT22;10421;49.142;9.232;2022-11-09T08:37:08;14.80;99.90
20526;DHT22;10421;49.142;9.232;2022-11-09T08:39:35;14.80;99.90
20526;DHT22;10421;49.142;9.232;2022-11-09T08:42:02;14.70;99.90
20526;DHT22;10421;49.142;9.232;2022-11-09T08:44:29;14.70;99.90
20526;DHT22;10421;49.142;9.232;2022-11-09T08:46:55;14.60;99.90
20526;DHT22;10421;49.142;9.232;2022-11-09T08:49:22;14.50;99.90
20526;DHT22;10421;49.142;9.232;2022-11-09T08:51:49;14.50;99.90
20526;DHT22;10421;49.142;9.232;2022-11-09T08:54:17;14.50;99.90
20526;DHT22;10421;49.142;9.232;2022-11-09T08:56:44;14.30;99.90
20526;DHT22;10421;49.142;9.232;2022-11-09T08:59:11;14.30;99.90
20526;DHT22;10421;49.142;9.232;2022-11-09T09:01:38;14.20;99.90
20526;DHT22;10421;49.142;9.232;2022-11-09T09:04:04;14.20;99.90
20526;DHT22;10421;49.142;9.232;2022-11-09T09:06:31;14.20;99.90
20526;DHT22;10421;49.142;9.232;2022-11-09T09:08:58;14.30;99.90
20526;DHT22;10421;49.142;9.232;2022-11-09T09:11:26;14.20;99.90
20526;DHT22;10421;49.142;9.232;2022-11-09T09:13:53;14.20;99.90
20526;DHT22;10421;49.142;9.232;2022-11-09T09:16:19;14.30;99.90
20526;DHT22;10421;49.142;9.232;2022-11-09T09:18:46;14.40;99.90
20526;DHT22;10421;49.142;9.232;2022-11-09T09:21:13;14.60;99.90
20526;DHT22;10421;49.142;9.232;2022-11-09T09:23:40;14.80;99.90
20526;DHT22;10421;49.142;9.232;2022-11-09T09:26:07;15.00;99.90
20526;DHT22;10421;49.142;9.232;2022-11-09T09:28:35;15.20;99.90
20526;DHT22;10421;49.142;9.232;2022-11-09T09:31:02;15.10;99.90
20526;DHT22;10421;49.142;9.232;2022-11-09T09:33:29;14.90;99.90
20526;DHT22;10421;49.142;9.232;2022-11-09T09:35:56;15.10;99.90
20526;DHT22;10421;49.142;9.232;2022-11-09T09:38:23;15.10;99.90
20526;DHT22;10421;49.142;9.232;2022-11-09T09:40:56;15.10;99.90
20526;DHT22;10421;49.142;9.232;2022-11-09T09:43:27;15.20;99.90
20526;DHT22;10421;49.142;9.232;2022-11-09T09:45:57;15.40;99.90
20526;DHT22;10421;49.142;9.232;2022-11-09T09:48:31;15.40;99.90
20526;DHT22;10421;49.142;9.232;2022-11-09T09:51:05;15.30;99.90
20526;DHT22;10421;49.142;9.232;2022-11-09T09:53:39;15.50;99.90
20526;DHT22;10421;49.142;9.232;2022-11-09T09:56:11;15.70;99.90
20526;DHT22;10421;49.142;9.232;2022-11-09T09:58:43;15.80;99.90
20526;DHT22;10421;49.142;9.232;2022-11-09T10:01:15;15.90;99.90
20526;DHT22;10421;49.142;9.232;2022-11-09T10:03:44;16.10;99.90
20526;DHT22;10421;49.142;9.232;2022-11-09T10:06:36;16.10;99.90
20526;DHT22;10421;49.142;9.232;2022-11-09T10:09:14;16.20;99.90
20526;DHT22;10421;49.142;9.232;2022-11-09T10:11:51;16.30;99.90
20526;DHT22;10421;49.142;9.232;2022-11-09T10:17:20;16.20;99.90
20526;DHT22;10421;49.142;9.232;2022-11-09T10:19:58;16.20;99.90
20526;DHT22;10421;49.142;9.232;2022-11-09T10:22:34;16.10;99.90
20526;DHT22;10421;49.142;9.232;2022-11-09T10:25:08;16.10;99.90
20526;DHT22;10421;49.142;9.232;2022-11-09T10:27:41;16.10;99.90
20526;DHT22;10421;49.142;9.232;2022-11-09T10:30:12;16.20;99.90
20526;DHT22;10421;49.142;9.232;2022-11-09T10:32:43;16.20;99.90
20526;DHT22;10421;49.142;9.232;2022-11-09T10:35:17;16.10;99.90
20526;DHT22;10421;49.142;9.232;2022-11-09T10:37:46;16.00;99.90
20526;DHT22;10421;49.142;9.232;2022-11-09T10:40:18;16.10;99.90
20526;DHT22;10421;49.142;9.232;2022-11-09T10:42:48;16.20;99.90
20526;DHT22;10421;49.142;9.232;2022-11-09T10:45:25;16.30;99.90
20526;DHT22;10421;49.142;9.232;2022-11-09T10:47:58;16.40;99.90
20526;DHT22;10421;49.142;9.232;2022-11-09T10:50:30;16.50;99.90
20526;DHT22;10421;49.142;9.232;2022-11-09T10:53:09;16.50;99.90
20526;DHT22;10421;49.142;9.232;2022-11-09T10:55:38;16.40;99.90
20526;DHT22;10421;49.142;9.232;2022-11-09T10:58:24;16.50;99.90
20526;DHT22;10421;49.142;9.232;2022-11-09T11:00:57;16.60;99.90
20526;DHT22;10421;49.142;9.232;2022-11-09T11:03:26;16.60;99.90
20526;DHT22;10421;49.142;9.232;2022-11-09T11:05:58;16.50;99.90
20526;DHT22;10421;49.142;9.232;2022-11-09T11:08:29;16.50;99.90
20526;DHT22;10421;49.142;9.232;2022-11-09T11:11:21;16.50;99.90
20526;DHT22;10421;49.142;9.232;2022-11-09T11:13:48;16.60;99.90
20526;DHT22;10421;49.142;9.232;2022-11-09T11:16:27;16.60;99.90
20526;DHT22;10421;49.142;9.232;2022-11-09T11:19:01;16.50;99.90
20526;DHT22;10421;49.142;9.232;2022-11-09T11:21:28;16.60;99.90
20526;DHT22;10421;49.142;9.232;2022-11-09T11:24:12;16.70;99.90
20526;DHT22;10421;49.142;9.232;2022-11-09T11:26:45;16.70;99.90
20526;DHT22;10421;49.142;9.232;2022-11-09T11:29:31;16.60;99.90
20526;DHT22;10421;49.142;9.232;2022-11-09T11:32:01;16.50;99.90
20526;DHT22;10421;49.142;9.232;2022-11-09T11:34:30;16.40;99.90
20526;DHT22;10421;49.142;9.232;2022-11-09T11:37:06;16.40;99.90
20526;DHT22;10421;49.142;9.232;2022-11-09T11:39:50;16.40;99.90
20526;DHT22;10421;49.142;9.232;2022-11-09T11:42:32;16.40;99.90
20526;DHT22;10421;49.142;9.232;2022-11-09T11:45:14;16.30;99.90
20526;DHT22;10421;49.142;9.232;2022-11-09T11:47:50;16.30;99.90
20526;DHT22;10421;49.142;9.232;2022-11-09T11:50:30;16.40;99.90
20526;DHT22;10421;49.142;9.232;2022-11-09T11:53:15;16.50;99.90
20526;DHT22;10421;49.142;9.232;2022-11-09T11:55:54;16.50;99.90
20526;DHT22;10421;49.142;9.232;2022-11-09T11:58:41;16.50;99.90
20526;DHT22;10421;49.142;9.232;2022-11-09T12:01:22;16.50;99.90
20526;DHT22;10421;49.142;9.232;2022-11-09T12:04:05;16.50;99.90
20526;DHT22;10421;49.142;9.232;2022-11-09T12:07:00;16.60;99.90
20526;DHT22;10421;49.142;9.232;2022-11-09T12:09:38;16.60;99.90
20526;DHT22;10421;49.142;9.232;2022-11-09T12:12:20;16.70;99.90
20526;DHT22;10421;49.142;9.232;2022-11-09T12:15:01;16.60;99.90
20526;DHT22;10421;49.142;9.232;2022-11-09T12:17:36;16.60;99.90
20526;DHT22;10421;49.142;9.232;2022-11-09T12:20:20;16.70;99.90
20526;DHT22;10421;49.142;9.232;2022-11-09T12:22:58;16.70;99.90
20526;DHT22;10421;49.142;9.232;2022-11-09T12:25:34;16.80;99.90
20526;DHT22;10421;49.142;9.232;2022-11-09T12:28:26;16.70;99.90
20526;DHT22;10421;49.142;9.232;2022-11-09T12:31:03;16.80;99.90
20526;DHT22;10421;49.142;9.232;2022-11-09T12:33:40;16.80;99.90
20526;DHT22;10421;49.142;9.232;2022-11-09T12:36:11;16.90;99.90
20526;DHT22;10421;49.142;9.232;2022-11-09T12:38:50;16.80;99.90
20526;DHT22;10421;49.142;9.232;2022-11-09T12:41:21;16.80;99.90
20526;DHT22;10421;49.142;9.232;2022-11-09T12:43:53;16.80;99.90
20526;DHT22;10421;49.142;9.232;2022-11-09T12:46:26;16.80;99.90
20526;DHT22;10421;49.142;9.232;2022-11-09T12:48:58;16.90;99.90
20526;DHT22;10421;49.142;9.232;2022-11-09T12:51:27;16.90;99.90
20526;DHT22;10421;49.142;9.232;2022-11-09T12:53:59;16.90;99.90
20526;DHT22;10421;49.142;9.232;2022-11-09T12:56:31;17.00;99.90
20526;DHT22;10421;49.142;9.232;2022-11-09T12:59:18;17.00;99.90
20526;DHT22;10421;49.142;9.232;2022-11-09T13:01:50;17.00;99.90
20526;DHT22;10421;49.142;9.232;2022-11-09T13:04:20;17.00;99.90
20526;DHT22;10421;49.142;9.232;2022-11-09T13:07:16;17.10;99.90
20526;DHT22;10421;49.142;9.232;2022-11-09T13:09:54;17.00;99.90
20526;DHT22;10421;49.142;9.232;2022-11-09T13:12:36;17.20;99.90
20526;DHT22;10421;49.142;9.232;2022-11-09T13:15:22;17.20;99.90
20526;DHT22;10421;49.142;9.232;2022-11-09T13:17:57;17.30;99.90
20526;DHT22;10421;49.142;9.232;2022-11-09T13:20:45;17.40;99.90
20526;DHT22;10421;49.142;9.232;2022-11-09T13:23:33;17.40;99.90
20526;DHT22;10421;49.142;9.232;2022-11-09T13:26:03;17.40;99.90
20526;DHT22;10421;49.142;9.232;2022-11-09T13:31:57;17.50;99.90
20526;DHT22;10421;49.142;9.232;2022-11-09T13:34:41;17.50;99.90
20526;DHT22;10421;49.142;9.232;2022-11-09T13:37:46;17.40;99.90
20526;DHT22;10421;49.142;9.232;2022-11-09T13:40:39;17.30;99.90
20526;DHT22;10421;49.142;9.232;2022-11-09T13:43:18;17.40;99.90
20526;DHT22;10421;49.142;9.232;2022-11-09T13:45:47;17.50;99.90
20526;DHT22;10421;49.142;9.232;2022-11-09T13:48:37;17.50;99.90
20526;DHT22;10421;49.142;9.232;2022-11-09T13:51:07;17.50;99.90
20526;DHT22;10421;49.142;9.232;2022-11-09T13:53:50;17.40;99.90
20526;DHT22;10421;49.142;9.232;2022-11-09T13:56:28;17.40;99.90
20526;DHT22;10421;49.142;9.232;2022-11-09T13:59:01;17.40;99.90
20526;DHT22;10421;49.142;9.232;2022-11-09T14:01:31;17.40;99.90
20526;DHT22;10421;49.142;9.232;2022-11-09T14:03:58;17.40;99.90
20526;DHT22;10421;49.142;9.232;2022-11-09T14:06:27;17.50;99.90
20526;DHT22;10421;49.142;9.232;2022-11-09T14:08:55;17.50;99.90
20526;DHT22;10421;49.142;9.232;2022-11-09T14:11:46;17.50;99.90
20526;DHT22;10421;49.142;9.232;2022-11-09T14:14:42;17.60;99.90
20526;DHT22;10421;49.142;9.232;2022-11-09T14:17:18;17.50;99.90
20526;DHT22;10421;49.142;9.232;2022-11-09T14:19:54;17.40;99.90
20526;DHT22;10421;49.142;9.232;2022-11-09T14:22:23;17.30;99.90
20526;DHT22;10421;49.142;9.232;2022-11-09T14:24:50;17.30;99.90
20526;DHT22;10421;49.142;9.232;2022-11-09T14:27:19;17.30;99.90
20526;DHT22;10421;49.142;9.232;2022-11-09T14:29:50;17.40;99.90
20526;DHT22;10421;49.142;9.232;2022-11-09T14:32:26;17.50;99.90
20526;DHT22;10421;49.142;9.232;2022-11-09T14:35:08;17.50;99.90
20526;DHT22;10421;49.142;9.232;2022-11-09T14:37:35;17.50;99.90
20526;DHT22;10421;49.142;9.232;2022-11-09T14:40:02;17.40;99.90
20526;DHT22;10421;49.142;9.232;2022-11-09T14:42:29;17.30;99.90
20526;DHT22;10421;49.142;9.232;2022-11-09T14:44:57;17.40;99.90
20526;DHT22;10421;49.142;9.232;2022-11-09T14:47:28;17.60;99.90
20526;DHT22;10421;49.142;9.232;2022-11-09T14:49:56;17.70;99.90
20526;DHT22;10421;49.142;9.232;2022-11-09T14:52:27;17.70;99.90
20526;DHT22;10421;49.142;9.232;2022-11-09T14:54:56;17.80;99.90
20526;DHT22;10421;49.142;9.232;2022-11-09T14:57:24;17.80;99.90
20526;DHT22;10421;49.142;9.232;2022-11-09T14:59:51;17.80;99.90
20526;DHT22;10421;49.142;9.232;2022-11-09T15:02:20;17.90;99.90
20526;DHT22;10421;49.142;9.232;2022-11-09T15:04:54;17.90;99.90
20526;DHT22;10421;49.142;9.232;2022-11-09T15:07:23;17.80;99.90
20526;DHT22;10421;49.142;9.232;2022-11-09T15:09:53;17.60;99.90
20526;DHT22;10421;49.142;9.232;2022-11-09T15:12:21;17.50;99.90
20526;DHT22;10421;49.142;9.232;2022-11-09T15:14:48;17.50;99.90
20526;DHT22;10421;49.142;9.232;2022-11-09T15:17:18;17.50;99.90
20526;DHT22;10421;49.142;9.232;2022-11-09T15:19:50;17.30;99.90
20526;DHT22;10421;49.142;9.232;2022-11-09T15:22:48;17.10;99.90
20526;DHT22;10421;49.142;9.232;2022-11-09T15:25:28;17.10;99.90
20526;DHT22;10421;49.142;9.232;2022-11-09T15:27:58;17.20;99.90
20526;DHT22;10421;49.142;9.232;2022-11-09T15:30:27;17.20;99.90
20526;DHT22;10421;49.142;9.232;2022-11-09T15:32:54;17.20;99.90
20526;DHT22;10421;49.142;9.232;2022-11-09T15:35:23;17.20;99.90
20526;DHT22;10421;49.142;9.232;2022-11-09T15:37:51;17.20;99.90
20526;DHT22;10421;49.142;9.232;2022-11-09T15:40:20;17.10;99.90
20526;DHT22;10421;49.142;9.232;2022-11-09T15:42:47;17.10;99.90
20526;DHT22;10421;49.142;9.232;2022-11-09T15:45:16;17.10;99.90
20526;DHT22;10421;49.142;9.232;2022-11-09T15:47:49;16.90;99.90
20526;DHT22;10421;49.142;9.232;2022-11-09T15:50:19;16.90;99.90
20526;DHT22;10421;49.142;9.232;2022-11-09T15:52:47;16.60;99.90
20526;DHT22;10421;49.142;9.232;2022-11-09T15:55:16;16.70;99.90
20526;DHT22;10421;49.142;9.232;2022-11-09T15:57:43;16.70;99.90